sensor_id;sensor_type;location;lat;lon;timestamp;temperature;humidity
24472;DHT22;12636;50.852;5.676;2024-01-16T00:00:43;0.30;99.90
24472;DHT22;12636;50.852;5.676;2024-01-16T00:03:10;0.40;99.90
24472;DHT22;12636;50.852;5.676;2024-01-16T00:05:37;0.40;99.90
24472;DHT22;12636;50.852;5.676;2024-01-16T00:08:03;0.50;99.90
24472;DHT22;12636;50.852;5.676;2024-01-16T00:10:31;0.50;99.90
24472;DHT22;12636;50.852;5.676;2024-01-16T00:12:58;0.50;99.90
24472;DHT22;12636;50.852;5.676;2024-01-16T00:15:24;0.60;99.90
24472;DHT22;12636;50.852;5.676;2024-01-16T00:17:51;0.60;99.90
24472;DHT22;12636;50.852;5.676;2024-01-16T00:20:18;0.60;99.90
24472;DHT22;12636;50.852;5.676;2024-01-16T00:22:47;0.50;99.90
24472;DHT22;12636;50.852;5.676;2024-01-16T00:25:14;0.50;99.90
24472;DHT22;12636;50.852;5.676;2024-01-16T00:27:44;0.40;99.90
24472;DHT22;12636;50.852;5.676;2024-01-16T00:30:11;0.40;99.90
24472;DHT22;12636;50.852;5.676;2024-01-16T00:32:38;0.40;99.90
24472;DHT22;12636;50.852;5.676;2024-01-16T00:35:05;0.40;99.90
24472;DHT22;12636;50.852;5.676;2024-01-16T00:37:32;0.30;99.90
24472;DHT22;12636;50.852;5.676;2024-01-16T00:39:59;0.40;99.90
24472;DHT22;12636;50.852;5.676;2024-01-16T00:42:26;0.50;99.90
24472;DHT22;12636;50.852;5.676;2024-01-16T00:44:54;0.50;99.90
24472;DHT22;12636;50.852;5.676;2024-01-16T00:47:21;0.60;99.90
24472;DHT22;12636;50.852;5.676;2024-01-16T00:49:48;0.60;99.90
24472;DHT22;12636;50.852;5.676;2024-01-16T00:52:15;0.60;99.90
24472;DHT22;12636;50.852;5.676;2024-01-16T00:54:42;0.60;99.90
24472;DHT22;12636;50.852;5.676;2024-01-16T00:57:09;0.60;99.90
24472;DHT22;12636;50.852;5.676;2024-01-16T00:59:36;0.70;99.90
24472;DHT22;12636;50.852;5.676;2024-01-16T01:02:04;0.70;99.90
24472;DHT22;12636;50.852;5.676;2024-01-16T01:04:32;0.70;99.90
24472;DHT22;12636;50.852;5.676;2024-01-16T01:06:59;0.70;99.90
24472;DHT22;12636;50.852;5.676;2024-01-16T01:09:26;0.70;99.90
24472;DHT22;12636;50.852;5.676;2024-01-16T01:11:53;0.70;99.90
24472;DHT22;12636;50.852;5.676;2024-01-16T01:14:20;0.70;99.90
24472;DHT22;12636;50.852;5.676;2024-01-16T01:16:47;0.70;99.90
24472;DHT22;12636;50.852;5.676;2024-01-16T01:19:15;0.70;99.90
24472;DHT22;12636;50.852;5.676;2024-01-16T01:21:42;0.70;99.90
24472;DHT22;12636;50.852;5.676;2024-01-16T01:24:09;0.70;99.90
24472;DHT22;12636;50.852;5.676;2024-01-16T01:26:36;0.70;99.90
24472;DHT22;12636;50.852;5.676;2024-01-16T01:29:02;0.70;99.90
24472;DHT22;12636;50.852;5.676;2024-01-16T01:31:29;0.70;99.90
24472;DHT22;12636;50.852;5.676;2024-01-16T01:33:56;0.70;99.90
24472;DHT22;12636;50.852;5.676;2024-01-16T01:36:24;0.70;99.90
24472;DHT22;12636;50.852;5.676;2024-01-16T01:38:51;0.70;99.90
24472;DHT22;12636;50.852;5.676;2024-01-16T01:41:18;0.80;99.90
24472;DHT22;12636;50.852;5.676;2024-01-16T01:43:45;0.70;99.90
24472;DHT22;12636;50.852;5.676;2024-01-16T01:46:13;0.80;99.90
24472;DHT22;12636;50.852;5.676;2024-01-16T01:48:41;0.80;99.90
24472;DHT22;12636;50.852;5.676;2024-01-16T01:51:08;0.80;99.90
24472;DHT22;12636;50.852;5.676;2024-01-16T01:53:37;0.80;99.90
24472;DHT22;12636;50.852;5.676;2024-01-16T01:56:04;0.70;99.90
24472;DHT22;12636;50.852;5.676;2024-01-16T01:58:33;0.70;99.90
24472;DHT22;12636;50.852;5.676;2024-01-16T02:01:01;0.70;99.90
24472;DHT22;12636;50.852;5.676;2024-01-16T02:03:29;0.70;99.90
24472;DHT22;12636;50.852;5.676;2024-01-16T02:05:56;0.60;99.90
24472;DHT22;12636;50.852;5.676;2024-01-16T02:08:23;0.60;99.90
24472;DHT22;12636;50.852;5.676;2024-01-16T02:10:51;0.60;99.90
24472;DHT22;12636;50.852;5.676;2024-01-16T02:13:18;0.60;99.90
24472;DHT22;12636;50.852;5.676;2024-01-16T02:15:48;0.60;99.90
24472;DHT22;12636;50.852;5.676;2024-01-16T02:18:15;0.50;99.90
24472;DHT22;12636;50.852;5.676;2024-01-16T02:20:42;0.50;99.90
24472;DHT22;12636;50.852;5.676;2024-01-16T02:23:10;0.60;99.90
24472;DHT22;12636;50.852;5.676;2024-01-16T02:25:39;0.60;99.90
24472;DHT22;12636;50.852;5.676;2024-01-16T02:28:06;0.60;99.90
24472;DHT22;12636;50.852;5.676;2024-01-16T02:30:33;0.50;99.90
24472;DHT22;12636;50.852;5.676;2024-01-16T02:33:00;0.60;99.90
24472;DHT22;12636;50.852;5.676;2024-01-16T02:35:27;0.60;99.90
24472;DHT22;12636;50.852;5.676;2024-01-16T02:37:53;0.50;99.90
24472;DHT22;12636;50.852;5.676;2024-01-16T02:40:20;0.60;99.90
24472;DHT22;12636;50.852;5.676;2024-01-16T02:42:49;0.60;99.90
24472;DHT22;12636;50.852;5.676;2024-01-16T02:45:16;0.60;99.90
24472;DHT22;12636;50.852;5.676;2024-01-16T02:47:43;0.60;99.90
24472;DHT22;12636;50.852;5.676;2024-01-16T02:50:10;0.60;99.90
24472;DHT22;12636;50.852;5.676;2024-01-16T02:52:36;0.60;99.90
24472;DHT22;12636;50.852;5.676;2024-01-16T02:55:04;0.60;99.90
24472;DHT22;12636;50.852;5.676;2024-01-16T02:57:31;0.60;99.90
24472;DHT22;12636;50.852;5.676;2024-01-16T02:59:59;0.50;99.90
24472;DHT22;12636;50.852;5.676;2024-01-16T03:02:26;0.60;99.90
24472;DHT22;12636;50.852;5.676;2024-01-16T03:04:53;0.60;99.90
24472;DHT22;12636;50.852;5.676;2024-01-16T03:07:20;0.60;99.90
24472;DHT22;12636;50.852;5.676;2024-01-16T03:09:47;0.50;99.90
24472;DHT22;12636;50.852;5.676;2024-01-16T03:12:14;0.50;99.90
24472;DHT22;12636;50.852;5.676;2024-01-16T03:14:40;0.50;99.90
24472;DHT22;12636;50.852;5.676;2024-01-16T03:17:09;0.50;99.90
24472;DHT22;12636;50.852;5.676;2024-01-16T03:19:36;0.50;99.90
24472;DHT22;12636;50.852;5.676;2024-01-16T03:22:06;0.40;99.90
24472;DHT22;12636;50.852;5.676;2024-01-16T03:24:33;0.40;99.90
24472;DHT22;12636;50.852;5.676;2024-01-16T03:27:01;0.40;99.90
24472;DHT22;12636;50.852;5.676;2024-01-16T03:29:29;0.40;99.90
24472;DHT22;12636;50.852;5.676;2024-01-16T03:31:56;0.40;99.90
24472;DHT22;12636;50.852;5.676;2024-01-16T03:34:24;0.30;99.90
24472;DHT22;12636;50.852;5.676;2024-01-16T03:36:51;0.30;99.90
24472;DHT22;12636;50.852;5.676;2024-01-16T03:39:18;0.20;99.90
24472;DHT22;12636;50.852;5.676;2024-01-16T03:41:45;0.20;99.90
24472;DHT22;12636;50.852;5.676;2024-01-16T03:44:12;0.10;99.90
24472;DHT22;12636;50.852;5.676;2024-01-16T03:46:38;0.10;99.90
24472;DHT22;12636;50.852;5.676;2024-01-16T03:49:05;0.00;99.90
24472;DHT22;12636;50.852;5.676;2024-01-16T03:51:34;0.00;99.90
24472;DHT22;12636;50.852;5.676;2024-01-16T03:54:00;-0.10;95.80
24472;DHT22;12636;50.852;5.676;2024-01-16T03:56:27;-0.10;99.40
24472;DHT22;12636;50.852;5.676;2024-01-16T03:58:54;-0.20;98.70
24472;DHT22;12636;50.852;5.676;2024-01-16T04:01:29;-0.20;99.70
24472;DHT22;12636;50.852;5.676;2024-01-16T04:03:56;-0.20;96.20
24472;DHT22;12636;50.852;5.676;2024-01-16T04:06:23;-0.30;92.90
24472;DHT22;12636;50.852;5.676;2024-01-16T04:08:51;-0.30;92.50
24472;DHT22;12636;50.852;5.676;2024-01-16T04:11:18;-0.30;93.90
24472;DHT22;12636;50.852;5.676;2024-01-16T04:13:45;-0.30;99.90
24472;DHT22;12636;50.852;5.676;2024-01-16T04:16:12;-0.30;97.20
24472;DHT22;12636;50.852;5.676;2024-01-16T04:18:39;-0.40;99.10
24472;DHT22;12636;50.852;5.676;2024-01-16T04:21:06;-0.50;99.90
24472;DHT22;12636;50.852;5.676;2024-01-16T04:23:33;-0.60;99.90
24472;DHT22;12636;50.852;5.676;2024-01-16T04:26:01;-0.60;99.90
24472;DHT22;12636;50.852;5.676;2024-01-16T04:28:28;-0.70;99.90
24472;DHT22;12636;50.852;5.676;2024-01-16T04:30:55;-0.70;99.90
24472;DHT22;12636;50.852;5.676;2024-01-16T04:33:22;-0.80;99.90
24472;DHT22;12636;50.852;5.676;2024-01-16T04:35:49;-0.80;99.90
24472;DHT22;12636;50.852;5.676;2024-01-16T04:38:15;-0.90;99.90
24472;DHT22;12636;50.852;5.676;2024-01-16T04:40:42;-1.00;99.90
24472;DHT22;12636;50.852;5.676;2024-01-16T04:43:11;-1.00;99.90
24472;DHT22;12636;50.852;5.676;2024-01-16T04:45:38;-0.90;99.90
24472;DHT22;12636;50.852;5.676;2024-01-16T04:48:05;-0.90;99.90
24472;DHT22;12636;50.852;5.676;2024-01-16T04:50:32;-1.00;99.90
24472;DHT22;12636;50.852;5.676;2024-01-16T04:52:59;-1.00;99.90
24472;DHT22;12636;50.852;5.676;2024-01-16T04:55:26;-1.00;99.90
24472;DHT22;12636;50.852;5.676;2024-01-16T04:57:53;-1.10;99.90
24472;DHT22;12636;50.852;5.676;2024-01-16T05:00:22;-1.10;99.90
24472;DHT22;12636;50.852;5.676;2024-01-16T05:02:49;-1.10;99.90
24472;DHT22;12636;50.852;5.676;2024-01-16T05:05:16;-1.10;99.90
24472;DHT22;12636;50.852;5.676;2024-01-16T05:07:43;-1.20;99.90
24472;DHT22;12636;50.852;5.676;2024-01-16T05:10:10;-1.20;99.90
24472;DHT22;12636;50.852;5.676;2024-01-16T05:12:38;-1.00;99.90
24472;DHT22;12636;50.852;5.676;2024-01-16T05:15:05;-1.10;99.90
24472;DHT22;12636;50.852;5.676;2024-01-16T05:17:34;-1.20;99.90
24472;DHT22;12636;50.852;5.676;2024-01-16T05:20:01;-1.40;99.90
24472;DHT22;12636;50.852;5.676;2024-01-16T05:22:29;-1.40;99.90
24472;DHT22;12636;50.852;5.676;2024-01-16T05:24:56;-1.40;99.90
24472;DHT22;12636;50.852;5.676;2024-01-16T05:27:23;-1.50;99.90
24472;DHT22;12636;50.852;5.676;2024-01-16T05:29:50;-1.50;99.90
24472;DHT22;12636;50.852;5.676;2024-01-16T05:32:17;-1.60;99.90
24472;DHT22;12636;50.852;5.676;2024-01-16T05:34:45;-1.50;99.90
24472;DHT22;12636;50.852;5.676;2024-01-16T05:37:12;-1.60;99.90
24472;DHT22;12636;50.852;5.676;2024-01-16T05:39:39;-1.50;99.90
24472;DHT22;12636;50.852;5.676;2024-01-16T05:42:06;-1.50;99.90
24472;DHT22;12636;50.852;5.676;2024-01-16T05:44:33;-1.50;99.90
24472;DHT22;12636;50.852;5.676;2024-01-16T05:47:00;-1.60;99.90
24472;DHT22;12636;50.852;5.676;2024-01-16T05:49:27;-1.50;99.90
24472;DHT22;12636;50.852;5.676;2024-01-16T05:51:56;-1.40;99.90
24472;DHT22;12636;50.852;5.676;2024-01-16T05:54:22;-1.40;99.90
24472;DHT22;12636;50.852;5.676;2024-01-16T05:56:49;-1.50;99.90
24472;DHT22;12636;50.852;5.676;2024-01-16T05:59:17;-1.50;99.90
24472;DHT22;12636;50.852;5.676;2024-01-16T06:01:43;-1.60;99.90
24472;DHT22;12636;50.852;5.676;2024-01-16T06:04:10;-1.60;99.90
24472;DHT22;12636;50.852;5.676;2024-01-16T06:06:37;-1.60;99.90
24472;DHT22;12636;50.852;5.676;2024-01-16T06:09:06;-1.60;99.90
24472;DHT22;12636;50.852;5.676;2024-01-16T06:11:32;-1.70;99.90
24472;DHT22;12636;50.852;5.676;2024-01-16T06:14:00;-1.60;99.90
24472;DHT22;12636;50.852;5.676;2024-01-16T06:16:26;-1.70;99.90
24472;DHT22;12636;50.852;5.676;2024-01-16T06:18:54;-1.60;99.90
24472;DHT22;12636;50.852;5.676;2024-01-16T06:21:22;-1.50;99.90
24472;DHT22;12636;50.852;5.676;2024-01-16T06:23:49;-1.60;99.90
24472;DHT22;12636;50.852;5.676;2024-01-16T06:26:17;-1.60;99.90
24472;DHT22;12636;50.852;5.676;2024-01-16T06:28:44;-1.80;99.90
24472;DHT22;12636;50.852;5.676;2024-01-16T06:31:11;-1.80;99.90
24472;DHT22;12636;50.852;5.676;2024-01-16T06:33:38;-1.80;99.90
24472;DHT22;12636;50.852;5.676;2024-01-16T06:36:06;-1.80;99.90
24472;DHT22;12636;50.852;5.676;2024-01-16T06:38:33;-1.70;99.90
24472;DHT22;12636;50.852;5.676;2024-01-16T06:40:59;-1.70;99.90
24472;DHT22;12636;50.852;5.676;2024-01-16T06:43:28;-1.90;99.90
24472;DHT22;12636;50.852;5.676;2024-01-16T06:45:55;-1.90;99.90
24472;DHT22;12636;50.852;5.676;2024-01-16T06:48:22;-1.90;99.90
24472;DHT22;12636;50.852;5.676;2024-01-16T06:50:49;-1.90;99.90
24472;DHT22;12636;50.852;5.676;2024-01-16T06:53:16;-1.90;99.90
24472;DHT22;12636;50.852;5.676;2024-01-16T06:55:43;-1.90;99.90
24472;DHT22;12636;50.852;5.676;2024-01-16T06:58:09;-1.90;99.90
24472;DHT22;12636;50.852;5.676;2024-01-16T07:00:38;-1.90;99.90
24472;DHT22;12636;50.852;5.676;2024-01-16T07:03:06;-1.90;99.90
24472;DHT22;12636;50.852;5.676;2024-01-16T07:05:33;-1.90;99.90
24472;DHT22;12636;50.852;5.676;2024-01-16T07:08:00;-2.00;99.90
24472;DHT22;12636;50.852;5.676;2024-01-16T07:10:27;-2.00;99.90
24472;DHT22;12636;50.852;5.676;2024-01-16T07:12:54;-1.90;99.90
24472;DHT22;12636;50.852;5.676;2024-01-16T07:15:22;-1.80;99.90
24472;DHT22;12636;50.852;5.676;2024-01-16T07:17:50;-1.80;99.90
24472;DHT22;12636;50.852;5.676;2024-01-16T07:20:17;-1.80;99.90
24472;DHT22;12636;50.852;5.676;2024-01-16T07:22:45;-1.70;99.90
24472;DHT22;12636;50.852;5.676;2024-01-16T07:25:11;-1.80;99.90
24472;DHT22;12636;50.852;5.676;2024-01-16T07:27:38;-1.80;99.90
24472;DHT22;12636;50.852;5.676;2024-01-16T07:30:06;-1.80;99.90
24472;DHT22;12636;50.852;5.676;2024-01-16T07:32:33;-1.70;99.90
24472;DHT22;12636;50.852;5.676;2024-01-16T07:35:02;-1.70;99.90
24472;DHT22;12636;50.852;5.676;2024-01-16T07:37:29;-1.70;99.90
24472;DHT22;12636;50.852;5.676;2024-01-16T07:39:55;-1.70;99.90
24472;DHT22;12636;50.852;5.676;2024-01-16T07:42:22;-1.60;99.90
24472;DHT22;12636;50.852;5.676;2024-01-16T07:44:49;-1.60;99.90
24472;DHT22;12636;50.852;5.676;2024-01-16T07:47:17;-1.60;99.90
24472;DHT22;12636;50.852;5.676;2024-01-16T07:49:43;-1.60;99.60
24472;DHT22;12636;50.852;5.676;2024-01-16T07:52:12;-1.60;94.80
24472;DHT22;12636;50.852;5.676;2024-01-16T07:54:39;-1.60;92.00
24472;DHT22;12636;50.852;5.676;2024-01-16T07:57:05;-1.50;76.60
24472;DHT22;12636;50.852;5.676;2024-01-16T07:59:32;-1.50;50.70
24472;DHT22;12636;50.852;5.676;2024-01-16T08:01:59;-1.50;47.80
24472;DHT22;12636;50.852;5.676;2024-01-16T08:04:26;-1.40;36.70
24472;DHT22;12636;50.852;5.676;2024-01-16T08:06:53;-1.30;19.50
24472;DHT22;12636;50.852;5.676;2024-01-16T08:09:21;-1.30;11.00
24472;DHT22;12636;50.852;5.676;2024-01-16T08:11:48;-1.20;1.00
24472;DHT22;12636;50.852;5.676;2024-01-16T08:14:15;-1.30;1.00
24472;DHT22;12636;50.852;5.676;2024-01-16T08:16:42;-1.30;1.00
24472;DHT22;12636;50.852;5.676;2024-01-16T08:19:09;-1.10;1.00
24472;DHT22;12636;50.852;5.676;2024-01-16T08:21:36;-1.10;1.00
24472;DHT22;12636;50.852;5.676;2024-01-16T08:24:02;-1.00;1.00
24472;DHT22;12636;50.852;5.676;2024-01-16T08:26:31;-0.80;1.00
24472;DHT22;12636;50.852;5.676;2024-01-16T08:28:58;-0.60;1.00
24472;DHT22;12636;50.852;5.676;2024-01-16T08:31:25;-0.40;1.00
24472;DHT22;12636;50.852;5.676;2024-01-16T08:33:52;-0.20;1.00
24472;DHT22;12636;50.852;5.676;2024-01-16T08:36:21;0.10;1.00
24472;DHT22;12636;50.852;5.676;2024-01-16T08:38:48;0.40;1.00
24472;DHT22;12636;50.852;5.676;2024-01-16T08:41:15;0.70;99.90
24472;DHT22;12636;50.852;5.676;2024-01-16T08:43:43;0.90;1.00
24472;DHT22;12636;50.852;5.676;2024-01-16T08:46:10;0.80;1.00
24472;DHT22;12636;50.852;5.676;2024-01-16T08:48:37;0.50;1.00
24472;DHT22;12636;50.852;5.676;2024-01-16T08:51:06;0.30;8.30
24472;DHT22;12636;50.852;5.676;2024-01-16T08:53:34;0.20;1.00
24472;DHT22;12636;50.852;5.676;2024-01-16T08:56:01;0.30;1.00
24472;DHT22;12636;50.852;5.676;2024-01-16T08:58:32;0.40;99.90
24472;DHT22;12636;50.852;5.676;2024-01-16T09:01:02;0.60;1.00
24472;DHT22;12636;50.852;5.676;2024-01-16T09:03:30;0.50;1.00
24472;DHT22;12636;50.852;5.676;2024-01-16T09:05:57;0.40;1.00
24472;DHT22;12636;50.852;5.676;2024-01-16T09:08:25;0.30;1.00
24472;DHT22;12636;50.852;5.676;2024-01-16T09:10:53;0.40;1.00
24472;DHT22;12636;50.852;5.676;2024-01-16T09:13:19;0.40;1.00
24472;DHT22;12636;50.852;5.676;2024-01-16T09:15:47;0.60;1.00
24472;DHT22;12636;50.852;5.676;2024-01-16T09:18:15;0.70;99.90
24472;DHT22;12636;50.852;5.676;2024-01-16T09:20:42;0.60;1.00
24472;DHT22;12636;50.852;5.676;2024-01-16T09:23:09;0.60;1.00
24472;DHT22;12636;50.852;5.676;2024-01-16T09:25:36;0.70;1.00
24472;DHT22;12636;50.852;5.676;2024-01-16T09:28:03;0.70;99.90
24472;DHT22;12636;50.852;5.676;2024-01-16T09:30:30;0.80;99.90
24472;DHT22;12636;50.852;5.676;2024-01-16T09:32:58;0.60;1.00
24472;DHT22;12636;50.852;5.676;2024-01-16T09:35:27;0.60;99.90
24472;DHT22;12636;50.852;5.676;2024-01-16T09:37:53;0.60;99.90
24472;DHT22;12636;50.852;5.676;2024-01-16T09:40:20;0.70;87.50
24472;DHT22;12636;50.852;5.676;2024-01-16T09:42:47;0.70;99.90
24472;DHT22;12636;50.852;5.676;2024-01-16T09:45:15;0.80;1.00
24472;DHT22;12636;50.852;5.676;2024-01-16T09:47:46;0.70;1.00
24472;DHT22;12636;50.852;5.676;2024-01-16T09:50:13;0.80;1.00
24472;DHT22;12636;50.852;5.676;2024-01-16T09:52:43;0.70;1.00
24472;DHT22;12636;50.852;5.676;2024-01-16T09:55:10;0.90;1.00
24472;DHT22;12636;50.852;5.676;2024-01-16T09:57:38;0.90;99.90
24472;DHT22;12636;50.852;5.676;2024-01-16T10:00:06;1.20;99.90
24472;DHT22;12636;50.852;5.676;2024-01-16T10:02:34;1.30;1.00
24472;DHT22;12636;50.852;5.676;2024-01-16T10:05:01;1.10;99.90
24472;DHT22;12636;50.852;5.676;2024-01-16T10:07:28;1.30;1.00
24472;DHT22;12636;50.852;5.676;2024-01-16T10:09:58;1.40;99.90
24472;DHT22;12636;50.852;5.676;2024-01-16T10:12:25;1.60;62.10
24472;DHT22;12636;50.852;5.676;2024-01-16T10:14:52;2.50;71.60
24472;DHT22;12636;50.852;5.676;2024-01-16T10:17:20;3.10;1.00
24472;DHT22;12636;50.852;5.676;2024-01-16T10:19:48;3.80;99.90
24472;DHT22;12636;50.852;5.676;2024-01-16T10:22:19;3.40;1.00
24472;DHT22;12636;50.852;5.676;2024-01-16T10:24:46;3.20;1.00
24472;DHT22;12636;50.852;5.676;2024-01-16T10:27:15;2.80;1.00
24472;DHT22;12636;50.852;5.676;2024-01-16T10:29:49;3.40;1.00
24472;DHT22;12636;50.852;5.676;2024-01-16T10:32:26;4.10;1.00
24472;DHT22;12636;50.852;5.676;2024-01-16T10:35:00;3.90;99.90
24472;DHT22;12636;50.852;5.676;2024-01-16T10:37:27;4.10;1.00
24472;DHT22;12636;50.852;5.676;2024-01-16T10:39:54;4.10;1.00
24472;DHT22;12636;50.852;5.676;2024-01-16T10:42:23;4.40;1.00
24472;DHT22;12636;50.852;5.676;2024-01-16T10:44:53;4.20;1.00
24472;DHT22;12636;50.852;5.676;2024-01-16T10:47:21;3.90;1.00
24472;DHT22;12636;50.852;5.676;2024-01-16T10:49:48;3.20;1.00
24472;DHT22;12636;50.852;5.676;2024-01-16T10:52:15;3.40;44.50
24472;DHT22;12636;50.852;5.676;2024-01-16T10:54:44;3.60;1.00
24472;DHT22;12636;50.852;5.676;2024-01-16T10:57:15;4.00;1.00
24472;DHT22;12636;50.852;5.676;2024-01-16T10:59:45;4.20;1.00
24472;DHT22;12636;50.852;5.676;2024-01-16T11:02:13;4.00;1.00
24472;DHT22;12636;50.852;5.676;2024-01-16T11:04:41;4.10;1.00
24472;DHT22;12636;50.852;5.676;2024-01-16T11:07:09;3.90;1.00
24472;DHT22;12636;50.852;5.676;2024-01-16T11:09:36;4.00;1.00
24472;DHT22;12636;50.852;5.676;2024-01-16T11:12:04;4.00;1.00
24472;DHT22;12636;50.852;5.676;2024-01-16T11:14:31;4.00;1.00
24472;DHT22;12636;50.852;5.676;2024-01-16T11:17:00;4.00;1.00
24472;DHT22;12636;50.852;5.676;2024-01-16T11:19:27;4.30;1.00
24472;DHT22;12636;50.852;5.676;2024-01-16T11:21:55;4.10;1.00
24472;DHT22;12636;50.852;5.676;2024-01-16T11:24:22;4.10;1.00
24472;DHT22;12636;50.852;5.676;2024-01-16T11:26:49;4.10;1.00
24472;DHT22;12636;50.852;5.676;2024-01-16T11:32:03;4.10;1.00
24472;DHT22;12636;50.852;5.676;2024-01-16T11:37:20;4.00;1.00
24472;DHT22;12636;50.852;5.676;2024-01-16T11:39:53;4.40;1.00
24472;DHT22;12636;50.852;5.676;2024-01-16T11:42:25;4.50;1.00
24472;DHT22;12636;50.852;5.676;2024-01-16T11:44:52;4.60;1.00
24472;DHT22;12636;50.852;5.676;2024-01-16T11:47:21;4.70;1.00
24472;DHT22;12636;50.852;5.676;2024-01-16T11:49:49;4.00;1.00
24472;DHT22;12636;50.852;5.676;2024-01-16T11:52:34;3.90;1.00
24472;DHT22;12636;50.852;5.676;2024-01-16T11:55:19;3.60;1.00
24472;DHT22;12636;50.852;5.676;2024-01-16T11:57:54;3.80;1.00
24472;DHT22;12636;50.852;5.676;2024-01-16T12:00:25;3.50;1.00
24472;DHT22;12636;50.852;5.676;2024-01-16T12:02:56;3.40;1.00
24472;DHT22;12636;50.852;5.676;2024-01-16T12:05:23;3.60;1.00
24472;DHT22;12636;50.852;5.676;2024-01-16T12:07:51;3.60;1.00
24472;DHT22;12636;50.852;5.676;2024-01-16T12:10:20;3.80;1.00
24472;DHT22;12636;50.852;5.676;2024-01-16T12:12:47;3.50;1.00
24472;DHT22;12636;50.852;5.676;2024-01-16T12:15:15;3.80;1.00
24472;DHT22;12636;50.852;5.676;2024-01-16T12:17:52;4.10;1.00
24472;DHT22;12636;50.852;5.676;2024-01-16T12:20:21;4.50;1.00
24472;DHT22;12636;50.852;5.676;2024-01-16T12:22:52;4.60;99.90
24472;DHT22;12636;50.852;5.676;2024-01-16T12:25:19;4.30;1.00
24472;DHT22;12636;50.852;5.676;2024-01-16T12:27:49;4.30;99.90
24472;DHT22;12636;50.852;5.676;2024-01-16T12:30:20;4.40;99.90
24472;DHT22;12636;50.852;5.676;2024-01-16T12:32:47;4.90;99.90
24472;DHT22;12636;50.852;5.676;2024-01-16T12:35:20;4.90;99.90
24472;DHT22;12636;50.852;5.676;2024-01-16T12:37:59;4.50;99.90
24472;DHT22;12636;50.852;5.676;2024-01-16T12:40:27;4.30;1.00
24472;DHT22;12636;50.852;5.676;2024-01-16T12:42:54;4.50;1.00
24472;DHT22;12636;50.852;5.676;2024-01-16T12:45:21;4.70;1.00
24472;DHT22;12636;50.852;5.676;2024-01-16T12:47:51;5.00;1.00
24472;DHT22;12636;50.852;5.676;2024-01-16T12:50:21;4.90;1.00
24472;DHT22;12636;50.852;5.676;2024-01-16T12:52:49;4.90;99.90
24472;DHT22;12636;50.852;5.676;2024-01-16T12:55:17;4.80;99.90
24472;DHT22;12636;50.852;5.676;2024-01-16T12:57:44;4.50;99.90
24472;DHT22;12636;50.852;5.676;2024-01-16T13:00:21;4.50;1.00
24472;DHT22;12636;50.852;5.676;2024-01-16T13:02:51;5.10;1.00
24472;DHT22;12636;50.852;5.676;2024-01-16T13:05:22;4.90;99.90
24472;DHT22;12636;50.852;5.676;2024-01-16T13:07:59;4.70;99.90
24472;DHT22;12636;50.852;5.676;2024-01-16T13:10:26;4.60;99.90
24472;DHT22;12636;50.852;5.676;2024-01-16T13:12:55;4.90;99.90
24472;DHT22;12636;50.852;5.676;2024-01-16T13:15:37;5.10;1.00
24472;DHT22;12636;50.852;5.676;2024-01-16T13:18:04;4.80;99.90
24472;DHT22;12636;50.852;5.676;2024-01-16T13:20:32;4.90;1.00
24472;DHT22;12636;50.852;5.676;2024-01-16T13:22:59;4.60;1.00
24472;DHT22;12636;50.852;5.676;2024-01-16T13:25:26;4.30;1.00
24472;DHT22;12636;50.852;5.676;2024-01-16T13:27:53;4.30;1.00
24472;DHT22;12636;50.852;5.676;2024-01-16T13:30:20;4.20;1.00
24472;DHT22;12636;50.852;5.676;2024-01-16T13:32:47;4.20;1.00
24472;DHT22;12636;50.852;5.676;2024-01-16T13:35:14;4.10;1.00
24472;DHT22;12636;50.852;5.676;2024-01-16T13:37:43;4.30;1.00
24472;DHT22;12636;50.852;5.676;2024-01-16T13:40:10;4.20;1.00
24472;DHT22;12636;50.852;5.676;2024-01-16T13:42:40;4.10;1.00
24472;DHT22;12636;50.852;5.676;2024-01-16T13:45:08;4.10;1.00
24472;DHT22;12636;50.852;5.676;2024-01-16T13:47:35;4.30;1.00
24472;DHT22;12636;50.852;5.676;2024-01-16T13:50:06;4.40;1.00
24472;DHT22;12636;50.852;5.676;2024-01-16T13:52:33;4.40;1.00
24472;DHT22;12636;50.852;5.676;2024-01-16T13:55:02;4.10;1.00
24472;DHT22;12636;50.852;5.676;2024-01-16T13:57:31;4.20;1.00
24472;DHT22;12636;50.852;5.676;2024-01-16T13:59:58;4.10;1.00
24472;DHT22;12636;50.852;5.676;2024-01-16T14:02:25;4.10;1.00
24472;DHT22;12636;50.852;5.676;2024-01-16T14:04:52;3.90;1.00
24472;DHT22;12636;50.852;5.676;2024-01-16T14:07:19;3.90;1.00
24472;DHT22;12636;50.852;5.676;2024-01-16T14:09:47;4.00;1.00
24472;DHT22;12636;50.852;5.676;2024-01-16T14:12:15;4.20;1.00
24472;DHT22;12636;50.852;5.676;2024-01-16T14:14:44;4.00;1.00
24472;DHT22;12636;50.852;5.676;2024-01-16T14:17:13;4.10;1.00
24472;DHT22;12636;50.852;5.676;2024-01-16T14:19:39;4.40;1.00
24472;DHT22;12636;50.852;5.676;2024-01-16T14:22:06;4.40;1.00
24472;DHT22;12636;50.852;5.676;2024-01-16T14:24:32;4.10;1.00
24472;DHT22;12636;50.852;5.676;2024-01-16T14:26:59;4.20;1.00
24472;DHT22;12636;50.852;5.676;2024-01-16T14:29:28;3.90;1.00
24472;DHT22;12636;50.852;5.676;2024-01-16T14:31:55;3.70;1.00
24472;DHT22;12636;50.852;5.676;2024-01-16T14:34:22;3.70;1.00
24472;DHT22;12636;50.852;5.676;2024-01-16T14:36:49;3.80;1.00
24472;DHT22;12636;50.852;5.676;2024-01-16T14:39:16;3.80;1.00
24472;DHT22;12636;50.852;5.676;2024-01-16T14:41:50;3.80;1.00
24472;DHT22;12636;50.852;5.676;2024-01-16T14:44:16;3.80;1.00
24472;DHT22;12636;50.852;5.676;2024-01-16T14:46:45;3.80;1.00
24472;DHT22;12636;50.852;5.676;2024-01-16T14:49:12;3.50;1.00
24472;DHT22;12636;50.852;5.676;2024-01-16T14:51:39;3.70;1.00
24472;DHT22;12636;50.852;5.676;2024-01-16T14:54:06;3.90;1.00
24472;DHT22;12636;50.852;5.676;2024-01-16T14:56:32;4.10;1.00
24472;DHT22;12636;50.852;5.676;2024-01-16T14:58:59;4.00;1.00
24472;DHT22;12636;50.852;5.676;2024-01-16T15:01:26;3.90;1.00
24472;DHT22;12636;50.852;5.676;2024-01-16T15:03:55;4.00;1.00
24472;DHT22;12636;50.852;5.676;2024-01-16T15:06:23;3.80;1.00
24472;DHT22;12636;50.852;5.676;2024-01-16T15:08:51;3.60;1.00
24472;DHT22;12636;50.852;5.676;2024-01-16T15:11:18;3.40;1.00
24472;DHT22;12636;50.852;5.676;2024-01-16T15:13:45;2.70;1.00
24472;DHT22;12636;50.852;5.676;2024-01-16T15:16:14;2.00;1.00
24472;DHT22;12636;50.852;5.676;2024-01-16T15:18:42;1.50;99.90
24472;DHT22;12636;50.852;5.676;2024-01-16T15:21:10;1.20;1.00
24472;DHT22;12636;50.852;5.676;2024-01-16T15:23:37;1.00;1.00
24472;DHT22;12636;50.852;5.676;2024-01-16T15:26:04;0.90;99.90
24472;DHT22;12636;50.852;5.676;2024-01-16T15:28:32;0.90;68.60
24472;DHT22;12636;50.852;5.676;2024-01-16T15:30:59;0.80;99.90
24472;DHT22;12636;50.852;5.676;2024-01-16T15:33:31;0.70;99.90
24472;DHT22;12636;50.852;5.676;2024-01-16T15:35:59;0.50;1.00
24472;DHT22;12636;50.852;5.676;2024-01-16T15:38:28;0.40;1.00
24472;DHT22;12636;50.852;5.676;2024-01-16T15:40:55;0.30;99.90
24472;DHT22;12636;50.852;5.676;2024-01-16T15:43:22;0.20;99.90
24472;DHT22;12636;50.852;5.676;2024-01-16T15:45:49;0.00;1.00
24472;DHT22;12636;50.852;5.676;2024-01-16T15:48:16;-0.10;1.00
24472;DHT22;12636;50.852;5.676;2024-01-16T15:50:43;-0.10;21.90
24472;DHT22;12636;50.852;5.676;2024-01-16T15:53:10;-0.10;99.90
24472;DHT22;12636;50.852;5.676;2024-01-16T15:55:38;-0.10;1.00